Time;durP1;ratioP1;P1;durP2;ratioP2;P2;SDS_P1;SDS_P2;PMS_P1;PMS_P2;Temp;Humidity;BMP_temperature;BMP_pressure;BME280_temperature;BME280_humidity;BME280_pressure;Samples;Min_cycle;Max_cycle;Signal;HPM_P1;HPM_P2
2022/08/15 00:01:26;;;;;;;16.13;12.98;;;21.30;98.80;;;;;;4966375;28;20034;-74
2022/08/15 00:03:58;;;;;;;16.50;11.00;;;21.20;99.20;;;;;;4984424;28;20542;-74
2022/08/15 00:06:31;;;;;;;15.23;13.10;;;21.20;99.40;;;;;;4984027;28;20034;-74
2022/08/15 00:08:59;;;;;;;19.77;13.02;;;21.20;99.60;;;;;;4985803;28;20050;-74
2022/08/15 00:11:36;;;;;;;16.58;13.70;;;21.20;99.70;;;;;;4999690;28;20045;-74
2022/08/15 00:14:14;;;;;;;15.05;13.23;;;21.20;99.90;;;;;;4980473;28;20059;-74
2022/08/15 00:16:41;;;;;;;16.13;13.30;;;21.20;99.90;;;;;;4980983;28;20394;-74
2022/08/15 00:19:17;;;;;;;17.45;14.38;;;21.20;99.90;;;;;;4980614;28;20050;-74
2022/08/15 00:21:46;;;;;;;15.95;13.77;;;21.20;99.90;;;;;;5007513;28;20065;-74
2022/08/15 00:24:18;;;;;;;15.18;13.27;;;21.10;99.90;;;;;;4980449;28;20569;-74
2022/08/15 00:26:45;;;;;;;;;;;21.10;99.90;;;;;;4983767;28;20048;-74
2022/08/15 00:29:12;;;;;;;17.15;13.52;;;21.10;99.90;;;;;;4997211;28;19917;-74
2022/08/15 00:31:38;;;;;;;15.35;13.70;;;21.10;99.90;;;;;;5016355;28;20045;-74
2022/08/15 00:34:04;;;;;;;17.35;13.52;;;21.10;99.90;;;;;;4993533;28;20313;-74
2022/08/15 00:36:30;;;;;;;15.65;12.73;;;21.10;99.90;;;;;;5001071;28;20515;-74
2022/08/15 00:38:58;;;;;;;15.15;11.77;;;21.00;99.90;;;;;;4985417;28;20046;-74
2022/08/15 00:41:39;;;;;;;16.75;12.95;;;21.10;99.90;;;;;;4968622;28;20054;-74
2022/08/15 00:44:30;;;;;;;14.35;12.10;;;21.00;99.90;;;;;;4981426;28;20487;-74
2022/08/15 00:47:04;;;;;;;15.50;12.93;;;21.00;99.90;;;;;;5009623;28;20404;-74
2022/08/15 00:49:32;;;;;;;17.92;13.90;;;21.00;99.90;;;;;;4982148;28;20166;-74
2022/08/15 00:52:03;;;;;;;18.98;14.57;;;21.00;99.90;;;;;;5009197;28;20046;-73
2022/08/15 00:54:41;;;;;;;13.87;12.30;;;20.90;99.90;;;;;;5012795;28;20057;-73
2022/08/15 00:57:10;;;;;;;19.42;13.52;;;21.00;99.90;;;;;;4984662;28;20829;-73
2022/08/15 00:59:41;;;;;;;17.02;13.40;;;20.90;99.90;;;;;;4984694;28;20030;-73
2022/08/15 01:02:11;;;;;;;17.65;14.65;;;20.90;99.90;;;;;;4958487;28;20042;-74
2022/08/15 01:04:38;;;;;;;24.98;15.30;;;20.90;99.90;;;;;;4979437;28;20736;-73
2022/08/15 01:07:04;;;;;;;16.10;12.70;;;20.90;99.90;;;;;;4980814;28;20069;-74
2022/08/15 01:09:30;;;;;;;19.20;13.02;;;20.80;99.90;;;;;;4982777;28;20408;-73
2022/08/15 01:12:10;;;;;;;19.48;13.25;;;20.80;99.90;;;;;;4983526;28;20041;-74
2022/08/15 01:14:37;;;;;;;18.05;13.27;;;20.80;99.90;;;;;;4979598;28;20069;-74
2022/08/15 01:17:04;;;;;;;15.00;12.68;;;20.70;99.90;;;;;;4968368;28;20050;-74
2022/08/15 01:19:38;;;;;;;16.35;13.10;;;20.70;99.90;;;;;;4979605;28;20516;-74
2022/08/15 01:22:21;;;;;;;16.50;14.05;;;20.70;99.90;;;;;;4983900;28;20080;-74
2022/08/15 01:25:00;;;;;;;16.27;12.93;;;20.70;99.90;;;;;;4991731;28;20044;-74
2022/08/15 01:27:32;;;;;;;16.70;13.02;;;20.70;99.90;;;;;;4984727;28;20440;-74
2022/08/15 01:30:00;;;;;;;18.50;13.52;;;20.70;99.90;;;;;;4983285;28;20566;-74
2022/08/15 01:32:26;;;;;;;14.95;13.35;;;20.70;99.90;;;;;;4968420;28;20499;-75
2022/08/15 01:34:52;;;;;;;14.80;12.30;;;20.70;99.90;;;;;;4985692;28;20048;-74
2022/08/15 01:37:18;;;;;;;14.35;11.75;;;20.70;99.90;;;;;;5013490;28;20060;-74
2022/08/15 01:39:54;;;;;;;16.50;11.98;;;20.70;99.90;;;;;;4983930;28;20077;-74
2022/08/15 01:42:30;;;;;;;17.77;11.90;;;20.70;99.90;;;;;;4977757;28;20045;-74
2022/08/15 01:45:18;;;;;;;15.00;12.65;;;20.70;99.90;;;;;;4984375;28;20045;-74
2022/08/15 01:48:08;;;;;;;14.50;11.70;;;20.70;99.90;;;;;;4998392;28;20056;-74
2022/08/15 01:50:40;;;;;;;16.30;12.68;;;20.60;99.90;;;;;;4996919;28;20372;-74
2022/08/15 01:53:35;;;;;;;15.90;12.60;;;20.70;99.90;;;;;;4982783;28;20046;-75
2022/08/15 01:56:14;;;;;;;14.88;11.68;;;20.70;99.90;;;;;;4983154;28;20038;-74
2022/08/15 01:58:45;;;;;;;15.23;12.27;;;20.70;99.90;;;;;;4972877;28;20053;-74
2022/08/15 02:01:15;;;;;;;15.95;11.40;;;20.60;99.90;;;;;;4984703;28;20169;-74
2022/08/15 02:03:43;;;;;;;15.13;12.90;;;20.60;99.90;;;;;;4984185;28;20052;-74
2022/08/15 02:06:30;;;;;;;14.20;11.85;;;20.50;99.90;;;;;;4971430;28;20042;-74
2022/08/15 02:08:56;;;;;;;17.20;12.23;;;20.50;99.90;;;;;;4979128;28;20488;-74
2022/08/15 02:11:27;;;;;;;17.48;12.10;;;20.50;99.90;;;;;;4967574;28;20075;-73
2022/08/15 02:13:54;;;;;;;14.80;11.93;;;20.40;99.90;;;;;;4971908;28;20462;-74
2022/08/15 02:16:23;;;;;;;16.20;12.20;;;20.40;99.90;;;;;;4984611;28;20052;-74
2022/08/15 02:18:48;;;;;;;13.73;12.27;;;20.30;99.90;;;;;;5011591;28;20073;-73
2022/08/15 02:21:14;;;;;;;13.85;12.05;;;20.30;99.90;;;;;;5002756;28;20073;-74
2022/08/15 02:23:40;;;;;;;14.27;12.00;;;20.30;99.90;;;;;;4988872;28;20050;-74
2022/08/15 02:26:08;;;;;;;14.40;11.55;;;20.20;99.90;;;;;;4993524;28;20039;-74
2022/08/15 02:28:38;;;;;;;17.13;12.00;;;20.30;99.90;;;;;;4981876;28;20050;-74
2022/08/15 02:31:10;;;;;;;15.38;12.43;;;20.20;99.90;;;;;;4984851;28;20045;-74
2022/08/15 02:33:36;;;;;;;14.73;11.68;;;20.20;99.90;;;;;;5001771;28;20046;-74
2022/08/15 02:36:02;;;;;;;15.55;12.05;;;20.20;99.90;;;;;;5004412;28;20048;-74
2022/08/15 02:38:30;;;;;;;14.85;12.40;;;20.10;99.90;;;;;;4982659;28;20132;-74
2022/08/15 02:40:57;;;;;;;14.73;12.35;;;20.20;99.90;;;;;;4987109;28;20038;-74
2022/08/15 02:43:23;;;;;;;13.85;12.20;;;20.10;99.90;;;;;;4994708;28;20041;-74
2022/08/15 02:45:50;;;;;;;15.45;12.18;;;20.10;99.90;;;;;;5000306;28;20041;-74
2022/08/15 02:48:16;;;;;;;17.77;12.95;;;20.10;99.90;;;;;;5012971;28;20116;-74
2022/08/15 02:50:42;;;;;;;15.40;13.35;;;20.10;99.90;;;;;;4999466;28;20300;-74
2022/08/15 02:53:14;;;;;;;15.18;13.48;;;20.10;99.90;;;;;;5020103;28;20049;-74
2022/08/15 02:55:41;;;;;;;14.43;12.65;;;20.00;99.90;;;;;;4987103;28;20041;-74
2022/08/15 02:58:09;;;;;;;16.50;13.02;;;20.00;99.90;;;;;;4974642;28;20503;-74
2022/08/15 03:00:35;;;;;;;14.80;12.73;;;19.90;99.90;;;;;;4956443;28;20078;-74
2022/08/15 03:03:06;;;;;;;15.45;13.68;;;19.90;99.90;;;;;;5001882;28;20088;-74
2022/08/15 03:05:34;;;;;;;16.80;13.95;;;19.90;99.90;;;;;;5009120;28;20042;-73
2022/08/15 03:08:01;;;;;;;16.63;13.88;;;19.80;99.90;;;;;;5018788;28;20522;-74
2022/08/15 03:10:27;;;;;;;17.50;13.88;;;19.80;99.90;;;;;;5003269;28;20503;-74
2022/08/15 03:12:57;;;;;;;20.30;14.15;;;19.80;99.90;;;;;;4967555;28;20404;-74
2022/08/15 03:15:30;;;;;;;17.13;14.07;;;19.70;99.90;;;;;;4968304;28;20394;-74
2022/08/15 03:17:56;;;;;;;15.73;13.82;;;19.70;99.90;;;;;;4986129;28;20318;-74
2022/08/15 03:20:22;;;;;;;18.67;15.35;;;19.70;99.90;;;;;;5020047;28;20116;-74
2022/08/15 03:22:49;;;;;;;16.75;14.25;;;19.70;99.90;;;;;;4985317;28;20053;-74
2022/08/15 03:25:17;;;;;;;18.85;15.30;;;19.70;99.90;;;;;;4966728;28;20097;-74
2022/08/15 03:27:44;;;;;;;19.98;15.02;;;19.70;99.90;;;;;;4984866;28;20061;-74
2022/08/15 03:30:12;;;;;;;19.15;14.48;;;19.60;99.90;;;;;;5011995;28;20077;-74
2022/08/15 03:32:52;;;;;;;18.00;15.25;;;19.60;99.90;;;;;;4977016;28;20057;-73
2022/08/15 03:35:21;;;;;;;19.52;13.70;;;19.50;99.90;;;;;;4985188;28;20391;-73
2022/08/15 03:37:47;;;;;;;20.30;13.88;;;19.50;99.90;;;;;;4985614;28;20068;-74
2022/08/15 03:40:13;;;;;;;17.95;15.02;;;19.40;99.90;;;;;;4984182;28;20069;-73
2022/08/15 03:42:49;;;;;;;18.33;14.35;;;19.40;99.90;;;;;;4982788;28;20046;-73
2022/08/15 03:45:15;;;;;;;16.42;14.00;;;19.40;99.90;;;;;;5013692;28;20034;-73
2022/08/15 03:47:41;;;;;;;17.65;13.68;;;19.40;99.90;;;;;;4983899;28;20038;-73
2022/08/15 03:50:11;;;;;;;16.92;14.25;;;19.40;99.90;;;;;;5019561;28;20077;-73
2022/08/15 03:53:13;;;;;;;16.80;13.65;;;19.40;99.90;;;;;;4994798;28;20124;-73
2022/08/15 03:55:41;;;;;;;16.63;13.40;;;19.40;99.90;;;;;;4977900;28;20054;-73
2022/08/15 03:58:08;;;;;;;18.20;14.25;;;19.30;99.90;;;;;;4967261;28;20129;-74
2022/08/15 04:00:46;;;;;;;16.75;14.90;;;19.30;99.90;;;;;;4966965;28;20496;-73
2022/08/15 04:03:19;;;;;;;20.70;14.90;;;19.30;99.90;;;;;;4984250;28;20038;-74
2022/08/15 04:05:49;;;;;;;19.50;13.35;;;19.30;99.90;;;;;;4983821;28;20038;-74
2022/08/15 04:08:17;;;;;;;16.17;13.07;;;19.30;99.90;;;;;;5002978;28;20109;-73
2022/08/15 04:10:45;;;;;;;17.33;14.05;;;19.30;99.90;;;;;;5003445;28;20049;-73
2022/08/15 04:13:12;;;;;;;16.10;13.82;;;19.30;99.90;;;;;;4969517;28;20506;-73
2022/08/15 04:15:39;;;;;;;17.40;13.57;;;19.20;99.90;;;;;;4978853;28;20049;-74
2022/08/15 04:18:05;;;;;;;17.65;14.40;;;19.10;99.90;;;;;;5012043;28;20041;-73
2022/08/15 04:20:31;;;;;;;17.45;13.35;;;19.10;99.90;;;;;;4983429;28;20541;-73
2022/08/15 04:22:58;;;;;;;19.42;13.95;;;19.10;99.90;;;;;;4980005;28;20047;-73
2022/08/15 04:25:34;;;;;;;16.25;14.25;;;19.10;99.90;;;;;;4982286;28;20038;-73
2022/08/15 04:28:02;;;;;;;19.05;14.05;;;19.10;99.90;;;;;;4993795;28;21421;-73
2022/08/15 04:30:31;;;;;;;19.10;14.50;;;19.10;99.90;;;;;;5016125;28;20041;-73
2022/08/15 04:33:11;;;;;;;17.08;13.55;;;19.10;99.90;;;;;;4980934;28;20038;-73
2022/08/15 04:35:38;;;;;;;17.25;13.30;;;19.10;99.90;;;;;;4980917;28;20034;-73
2022/08/15 04:38:04;;;;;;;18.55;13.93;;;19.10;99.90;;;;;;4979563;28;20198;-73
2022/08/15 04:40:30;;;;;;;19.70;14.43;;;19.10;99.90;;;;;;4979016;28;20112;-73
2022/08/15 04:42:59;;;;;;;17.30;14.13;;;19.10;99.90;;;;;;4982123;28;20347;-73
2022/08/15 04:45:31;;;;;;;17.75;14.68;;;19.10;99.90;;;;;;4965493;28;20034;-73
2022/08/15 04:48:02;;;;;;;18.38;14.85;;;19.10;99.90;;;;;;4982066;28;20046;-73
2022/08/15 04:50:30;;;;;;;18.33;14.75;;;19.10;99.90;;;;;;4973013;28;20078;-74
2022/08/15 04:52:57;;;;;;;17.88;14.07;;;19.10;99.90;;;;;;4981888;28;20046;-73
2022/08/15 04:55:24;;;;;;;17.40;14.07;;;19.20;99.90;;;;;;4963085;28;20070;-73
2022/08/15 04:57:51;;;;;;;21.88;15.15;;;19.20;99.90;;;;;;5010569;28;20061;-73
2022/08/15 05:00:21;;;;;;;16.98;13.82;;;19.30;99.90;;;;;;4991331;28;20038;-73
2022/08/15 05:03:12;;;;;;;17.15;13.55;;;19.30;99.90;;;;;;4986286;28;20060;-73
2022/08/15 05:05:44;;;;;;;18.92;13.63;;;19.30;99.90;;;;;;4978821;28;20337;-73
2022/08/15 05:08:11;;;;;;;16.05;13.77;;;19.40;99.90;;;;;;4979622;28;20685;-73
2022/08/15 05:10:39;;;;;;;16.23;12.55;;;19.50;99.90;;;;;;4981331;28;20053;-73
2022/08/15 05:13:32;;;;;;;19.67;13.80;;;19.50;99.90;;;;;;4980237;28;20399;-73
2022/08/15 05:15:59;;;;;;;18.73;12.88;;;19.60;99.90;;;;;;4980675;28;20045;-73
2022/08/15 05:18:27;;;;;;;17.92;13.65;;;19.70;99.90;;;;;;4966638;28;20094;-73
2022/08/15 05:20:54;;;;;;;15.20;13.23;;;19.70;99.90;;;;;;4980442;28;20038;-73
2022/08/15 05:23:22;;;;;;;16.05;13.23;;;19.80;99.90;;;;;;4968002;28;20100;-74
2022/08/15 05:25:55;;;;;;;14.60;12.82;;;19.80;99.90;;;;;;4965962;28;20031;-73
2022/08/15 05:28:22;;;;;;;15.75;12.82;;;19.90;99.90;;;;;;4982083;28;20072;-73
2022/08/15 05:30:49;;;;;;;16.90;12.82;;;19.90;99.90;;;;;;4977269;28;20101;-73
2022/08/15 05:33:19;;;;;;;17.65;14.00;;;20.00;99.90;;;;;;4966205;28;20062;-73
2022/08/15 05:35:49;;;;;;;18.95;14.30;;;20.00;99.90;;;;;;4981145;28;20190;-73
2022/08/15 05:38:21;;;;;;;24.60;14.45;;;20.00;99.90;;;;;;4981646;28;20518;-73
2022/08/15 05:40:57;;;;;;;21.70;14.13;;;20.00;99.90;;;;;;4973673;28;20042;-73
2022/08/15 05:43:50;;;;;;;21.45;16.00;;;20.10;99.90;;;;;;4981786;28;20070;-73
2022/08/15 05:46:43;;;;;;;21.00;14.40;;;20.10;99.90;;;;;;4977926;28;20049;-73
2022/08/15 05:49:17;;;;;;;17.75;14.45;;;20.00;99.90;;;;;;4983268;28;20225;-73
2022/08/15 05:51:48;;;;;;;22.83;14.43;;;20.10;99.90;;;;;;5017691;28;20045;-73
2022/08/15 05:54:42;;;;;;;19.15;14.50;;;20.00;99.90;;;;;;4979854;28;20057;-73
2022/08/15 05:57:25;;;;;;;18.95;14.63;;;20.10;99.90;;;;;;4984120;28;20485;-73
2022/08/15 05:59:55;;;;;;;18.80;14.55;;;20.20;99.90;;;;;;4967125;28;20050;-73
2022/08/15 06:02:29;;;;;;;19.35;14.88;;;20.20;99.90;;;;;;4981884;28;20057;-73
2022/08/15 06:05:08;;;;;;;16.90;14.88;;;20.30;99.90;;;;;;4986605;28;20104;-73
2022/08/15 06:07:34;;;;;;;18.38;14.35;;;20.30;99.90;;;;;;4984946;28;20042;-73
2022/08/15 06:10:25;;;;;;;17.75;15.05;;;20.40;99.90;;;;;;5017447;28;20121;-73
2022/08/15 06:12:56;;;;;;;19.30;14.27;;;20.40;99.90;;;;;;4964801;28;20042;-73
2022/08/15 06:15:36;;;;;;;18.48;15.07;;;20.50;99.90;;;;;;4997432;28;20042;-73
2022/08/15 06:18:07;;;;;;;16.75;13.90;;;20.60;99.90;;;;;;5009658;28;20049;-73
2022/08/15 06:20:51;;;;;;;19.25;15.10;;;20.50;99.90;;;;;;4985697;28;20130;-73
2022/08/15 06:23:41;;;;;;;16.77;14.75;;;20.60;99.90;;;;;;4998883;28;20515;-73
2022/08/15 06:26:40;;;;;;;16.15;13.55;;;20.70;99.90;;;;;;4987782;28;20045;-73
2022/08/15 06:29:43;;;;;;;16.10;13.70;;;20.80;99.90;;;;;;4979952;28;20124;-73
2022/08/15 06:32:43;;;;;;;17.38;13.70;;;20.80;99.90;;;;;;4955347;28;20050;-73
2022/08/15 06:35:36;;;;;;;15.60;13.05;;;20.90;99.90;;;;;;4971828;28;20137;-73
2022/08/15 06:38:29;;;;;;;17.70;13.80;;;21.00;99.90;;;;;;4982063;28;20052;-73
2022/08/15 06:41:03;;;;;;;17.50;14.05;;;21.00;99.90;;;;;;4955721;28;20420;-73
2022/08/15 06:43:30;;;;;;;17.45;13.68;;;21.10;99.90;;;;;;5014111;28;20034;-73
2022/08/15 06:45:59;;;;;;;18.77;13.80;;;21.10;99.90;;;;;;5000142;28;20511;-73
2022/08/15 06:48:31;;;;;;;17.52;13.27;;;21.20;99.90;;;;;;4983945;28;20045;-73
2022/08/15 06:51:00;;;;;;;16.60;13.82;;;21.20;99.90;;;;;;4972515;28;20034;-73
2022/08/15 06:53:54;;;;;;;15.70;12.73;;;21.30;99.90;;;;;;4948995;28;20050;-70
2022/08/15 06:56:34;;;;;;;15.73;12.93;;;21.40;99.90;;;;;;4963966;28;20053;-70
2022/08/15 06:59:15;;;;;;;19.23;13.98;;;21.50;99.90;;;;;;4999014;28;20058;-69
2022/08/15 07:01:52;;;;;;;16.38;12.95;;;21.50;99.90;;;;;;4989067;28;20088;-69
2022/08/15 07:04:41;;;;;;;17.40;12.38;;;21.60;99.90;;;;;;4966590;28;20550;-69
2022/08/15 07:07:38;;;;;;;17.98;12.32;;;21.70;99.90;;;;;;4981869;28;20042;-69
2022/08/15 07:10:23;;;;;;;14.70;12.20;;;21.80;99.90;;;;;;4984525;28;20451;-69
2022/08/15 07:12:53;;;;;;;18.27;12.75;;;21.90;99.90;;;;;;4986577;28;20054;-69
2022/08/15 07:15:57;;;;;;;16.38;13.05;;;22.00;99.90;;;;;;4969556;28;20113;-69
2022/08/15 07:18:31;;;;;;;15.60;12.85;;;22.10;99.90;;;;;;4948168;28;20054;-69
2022/08/15 07:21:17;;;;;;;17.48;13.40;;;22.20;99.90;;;;;;4968731;28;20435;-69
2022/08/15 07:24:04;;;;;;;13.93;12.10;;;22.30;99.90;;;;;;4984794;28;20078;-69
2022/08/15 07:26:37;;;;;;;16.20;13.43;;;22.40;99.90;;;;;;4967985;28;20101;-69
2022/08/15 07:29:12;;;;;;;16.17;13.05;;;22.50;99.90;;;;;;4952274;28;20811;-69
2022/08/15 07:31:39;;;;;;;15.30;13.68;;;22.50;99.90;;;;;;4968068;28;20392;-69
2022/08/15 07:34:19;;;;;;;15.20;13.38;;;22.60;99.90;;;;;;4986037;28;20042;-69
2022/08/15 07:36:59;;;;;;;24.70;14.95;;;22.70;99.90;;;;;;4967597;28;20092;-69
2022/08/15 07:39:40;;;;;;;16.15;14.13;;;22.80;99.90;;;;;;4951110;28;20050;-69
2022/08/15 07:42:15;;;;;;;15.68;12.65;;;22.90;99.90;;;;;;4964221;28;20381;-69
2022/08/15 07:44:53;;;;;;;16.02;13.13;;;22.90;99.90;;;;;;4980393;28;20111;-69
2022/08/15 07:47:27;;;;;;;17.23;12.10;;;23.00;99.90;;;;;;4965100;28;20053;-69
2022/08/15 07:50:21;;;;;;;19.58;11.98;;;23.10;99.90;;;;;;4961487;28;20137;-69
2022/08/15 07:53:03;;;;;;;12.93;11.10;;;23.20;99.90;;;;;;4980403;28;20050;-69
2022/08/15 07:55:28;;;;;;;11.82;10.60;;;23.30;99.90;;;;;;4965179;28;20050;-69
2022/08/15 07:58:19;;;;;;;12.18;10.15;;;23.50;99.90;;;;;;4964159;28;20050;-69
2022/08/15 08:00:52;;;;;;;13.23;10.00;;;23.60;99.90;;;;;;4941311;28;20069;-69
2022/08/15 08:03:27;;;;;;;9.88;8.80;;;23.80;99.90;;;;;;4997728;28;20649;-69
2022/08/15 08:06:02;;;;;;;19.35;10.15;;;23.90;99.90;;;;;;4964805;28;20046;-69
2022/08/15 08:08:40;;;;;;;12.05;9.40;;;24.10;99.90;;;;;;4962006;28;20133;-69
2022/08/15 08:11:20;;;;;;;13.93;8.70;;;24.10;99.90;;;;;;4965118;28;20060;-69
2022/08/15 08:13:54;;;;;;;10.77;8.38;;;24.20;99.90;;;;;;4963877;28;20130;-69
2022/08/15 08:17:08;;;;;;;10.38;8.32;;;24.40;99.90;;;;;;4964532;28;20136;-69
2022/08/15 08:20:05;;;;;;;12.45;7.72;;;24.40;99.90;;;;;;4956484;28;20058;-69
2022/08/15 08:22:38;;;;;;;10.77;7.60;;;24.70;99.90;;;;;;4974113;28;20045;-70
2022/08/15 08:25:28;;;;;;;8.50;7.43;;;25.00;99.90;;;;;;4956770;28;20487;-71
2022/08/15 08:28:13;;;;;;;8.90;7.97;;;25.30;99.90;;;;;;4967510;28;20136;-70
2022/08/15 08:30:47;;;;;;;8.23;7.28;;;25.50;99.90;;;;;;4953848;28;20130;-69
2022/08/15 08:33:47;;;;;;;11.00;8.30;;;25.50;99.50;;;;;;4986246;28;20034;-69
2022/08/15 08:36:27;;;;;;;14.90;7.38;;;25.40;99.20;;;;;;4968559;28;20443;-70
2022/08/15 08:39:10;;;;;;;12.77;7.82;;;25.40;99.80;;;;;;4969319;28;20042;-70
2022/08/15 08:41:58;;;;;;;15.45;7.25;;;25.40;99.50;;;;;;4968250;28;20053;-70
2022/08/15 08:44:38;;;;;;;16.67;7.82;;;25.40;98.80;;;;;;4954547;28;20121;-70
2022/08/15 08:47:05;;;;;;;10.95;7.90;;;25.40;99.60;;;;;;4954359;28;20031;-70
2022/08/15 08:49:37;;;;;;;9.30;7.70;;;25.70;99.50;;;;;;4962490;28;20065;-70
2022/08/15 08:52:13;;;;;;;9.70;7.45;;;25.90;99.40;;;;;;4973045;28;20156;-70
2022/08/15 08:54:44;;;;;;;9.98;7.38;;;26.00;99.20;;;;;;4974740;28;20046;-70
2022/08/15 08:57:15;;;;;;;8.23;7.38;;;26.20;98.90;;;;;;4959460;28;20058;-70
2022/08/15 09:00:05;;;;;;;9.20;7.68;;;26.10;97.30;;;;;;4973479;28;20034;-70
2022/08/15 09:02:42;;;;;;;14.88;8.18;;;26.00;97.80;;;;;;4973326;28;20509;-70
2022/08/15 09:05:22;;;;;;;14.52;8.20;;;26.00;97.80;;;;;;4973990;28;20042;-70
2022/08/15 09:07:53;;;;;;;15.25;9.15;;;26.00;97.40;;;;;;4973222;28;20038;-70
2022/08/15 09:10:29;;;;;;;13.98;9.07;;;25.90;97.70;;;;;;4973573;28;20078;-70
2022/08/15 09:15:43;;;;;;;9.55;8.20;;;25.90;97.50;;;;;;4988236;28;20295;-70
2022/08/15 09:18:16;;;;;;;10.48;8.85;;;26.20;97.80;;;;;;4973222;28;20046;-70
2022/08/15 09:20:42;;;;;;;23.92;8.65;;;26.30;96.70;;;;;;4973577;28;20524;-70
2022/08/15 09:23:10;;;;;;;18.52;8.23;;;26.40;96.60;;;;;;4961455;28;20088;-70
2022/08/15 09:25:56;;;;;;;11.52;9.32;;;26.60;96.70;;;;;;4992258;28;20103;-70
2022/08/15 09:28:44;;;;;;;11.45;8.90;;;26.70;95.20;;;;;;4991742;28;20514;-70
2022/08/15 09:31:26;;;;;;;12.20;9.25;;;26.90;96.20;;;;;;4992121;28;20108;-70
2022/08/15 09:34:04;;;;;;;;;;;27.10;96.10;;;;;;4989375;28;20483;-70
2022/08/15 09:36:32;;;;;;;11.15;8.32;;;27.10;95.70;;;;;;4975428;28;19969;-70
2022/08/15 09:39:25;;;;;;;9.75;8.27;;;27.20;96.20;;;;;;4977937;28;20167;-70
2022/08/15 09:42:27;;;;;;;10.20;8.13;;;27.50;94.80;;;;;;4974991;28;20070;-70
2022/08/15 09:44:52;;;;;;;23.73;10.70;;;27.50;94.90;;;;;;4967848;28;20061;-70
2022/08/15 09:47:39;;;;;;;13.70;10.98;;;27.40;94.70;;;;;;4971767;28;20034;-70
2022/08/15 09:50:36;;;;;;;14.48;11.52;;;27.10;94.10;;;;;;4975327;28;20144;-70
2022/08/15 09:53:40;;;;;;;22.10;13.20;;;26.80;94.20;;;;;;4970459;28;20053;-70
2022/08/15 09:56:11;;;;;;;20.00;12.10;;;26.60;93.70;;;;;;4964379;28;20511;-70
2022/08/15 09:59:09;;;;;;;13.75;12.27;;;26.40;94.20;;;;;;4991384;28;20057;-70
2022/08/15 10:01:47;;;;;;;17.40;12.90;;;26.20;94.50;;;;;;4974349;28;20053;-70
2022/08/15 10:04:17;;;;;;;16.90;13.43;;;26.10;95.10;;;;;;4991060;28;20052;-70
2022/08/15 10:07:12;;;;;;;15.60;13.43;;;25.90;95.40;;;;;;4975899;28;20038;-70
2022/08/15 10:10:03;;;;;;;19.15;13.90;;;26.00;96.00;;;;;;4939480;28;20078;-70
2022/08/15 10:12:31;;;;;;;19.85;13.50;;;26.00;95.90;;;;;;4986847;28;20041;-71
2022/08/15 10:15:04;;;;;;;18.83;13.90;;;26.10;96.00;;;;;;4991701;28;20052;-70
2022/08/15 10:17:37;;;;;;;16.35;13.07;;;26.10;96.10;;;;;;4991581;28;20407;-70
2022/08/15 10:20:15;;;;;;;17.25;14.10;;;26.10;96.10;;;;;;4975217;28;20065;-71
2022/08/15 10:22:59;;;;;;;16.23;12.20;;;26.00;96.10;;;;;;4932815;28;1225706;-71
2022/08/15 10:25:46;;;;;;;18.48;13.02;;;26.10;96.40;;;;;;5021017;28;20042;-73
2022/08/15 10:28:12;;;;;;;17.85;13.93;;;26.10;96.40;;;;;;4994569;28;20076;-73
2022/08/15 10:30:39;;;;;;;15.15;12.55;;;26.20;96.40;;;;;;4995775;28;20516;-72
2022/08/15 10:33:33;;;;;;;15.85;14.05;;;26.30;96.60;;;;;;4995572;28;20038;-73
2022/08/15 10:36:14;;;;;;;15.75;13.95;;;26.30;96.40;;;;;;5000716;28;20052;-73
2022/08/15 10:38:56;;;;;;;15.20;13.05;;;26.30;95.80;;;;;;4986566;28;20380;-73
2022/08/15 10:41:56;;;;;;;17.08;13.68;;;26.40;96.40;;;;;;5001803;28;20048;-72
2022/08/15 10:44:51;;;;;;;21.02;13.65;;;26.50;96.00;;;;;;4979679;28;20065;-73
2022/08/15 10:47:42;;;;;;;16.77;14.80;;;26.60;95.60;;;;;;4993677;28;20065;-73
2022/08/15 10:50:22;;;;;;;17.17;13.65;;;26.60;95.40;;;;;;5010462;28;20049;-73
2022/08/15 10:53:21;;;;;;;16.15;12.65;;;26.50;95.50;;;;;;4993360;28;20105;-73
2022/08/15 10:55:47;;;;;;;16.92;13.30;;;26.50;95.70;;;;;;4993098;28;20046;-73
2022/08/15 10:58:18;;;;;;;18.13;13.80;;;26.40;95.40;;;;;;4994794;28;20034;-73
2022/08/15 11:01:09;;;;;;;16.65;14.20;;;26.50;95.40;;;;;;4993688;28;20077;-73
2022/08/15 11:03:44;;;;;;;18.27;13.32;;;26.30;94.90;;;;;;4991768;28;20152;-73
2022/08/15 11:06:14;;;;;;;20.52;12.48;;;26.40;95.10;;;;;;4981768;28;20543;-73
2022/08/15 11:08:47;;;;;;;15.60;13.68;;;26.40;94.80;;;;;;4973878;28;20796;-73
2022/08/15 11:11:14;;;;;;;15.85;14.13;;;26.30;94.80;;;;;;4976625;28;20044;-73
2022/08/15 11:13:42;;;;;;;17.55;13.45;;;26.20;94.90;;;;;;4974387;28;20046;-73
2022/08/15 11:16:16;;;;;;;16.55;13.98;;;26.00;95.20;;;;;;5007348;28;20054;-73
2022/08/15 11:18:50;;;;;;;16.77;13.95;;;26.00;95.30;;;;;;4978779;28;20061;-73
2022/08/15 11:21:39;;;;;;;19.33;14.32;;;26.10;95.60;;;;;;4977909;28;20045;-73
2022/08/15 11:24:07;;;;;;;17.20;14.15;;;26.00;95.70;;;;;;4993413;28;20054;-73
2022/08/15 11:26:37;;;;;;;17.75;13.50;;;26.10;95.70;;;;;;4995484;28;20495;-73
2022/08/15 11:29:10;;;;;;;19.30;14.65;;;26.20;95.90;;;;;;4994751;28;20046;-73
2022/08/15 11:32:06;;;;;;;18.52;15.80;;;26.30;95.70;;;;;;4979484;28;20056;-75
2022/08/15 11:34:35;;;;;;;18.95;15.77;;;26.30;95.20;;;;;;4961717;28;20069;-75
2022/08/15 11:37:09;;;;;;;17.90;15.10;;;26.40;95.10;;;;;;4994416;28;20031;-76
2022/08/15 11:39:41;;;;;;;16.95;14.98;;;26.50;95.00;;;;;;4992716;28;20037;-77
2022/08/15 11:42:13;;;;;;;19.40;15.32;;;26.60;95.10;;;;;;4994373;28;20118;-76
2022/08/15 11:44:56;;;;;;;18.90;14.38;;;26.60;94.70;;;;;;4993981;28;20045;-76
2022/08/15 11:47:23;;;;;;;20.73;16.58;;;26.70;95.00;;;;;;4979642;28;20037;-76
2022/08/15 11:50:01;;;;;;;19.20;13.93;;;26.70;94.60;;;;;;4994369;28;20042;-76
2022/08/15 11:52:35;;;;;;;18.65;15.07;;;26.80;95.20;;;;;;4978178;28;20053;-76
2022/08/15 11:55:09;;;;;;;21.75;17.08;;;27.00;94.80;;;;;;4977789;28;20045;-76
2022/08/15 11:57:42;;;;;;;22.13;17.92;;;27.20;94.20;;;;;;4993437;28;20041;-76
2022/08/15 12:00:15;;;;;;;19.20;16.73;;;27.30;93.80;;;;;;4997481;28;20092;-76
2022/08/15 12:02:40;;;;;;;19.00;15.82;;;27.40;93.60;;;;;;5002532;28;20045;-75
2022/08/15 12:05:14;;;;;;;18.67;16.48;;;27.40;93.70;;;;;;4993412;28;20038;-75
2022/08/15 12:07:48;;;;;;;19.40;15.63;;;27.50;93.60;;;;;;4993779;28;20042;-75
2022/08/15 12:10:35;;;;;;;17.38;14.82;;;27.80;94.00;;;;;;4977157;28;20037;-76
2022/08/15 12:13:02;;;;;;;22.50;16.27;;;28.20;93.70;;;;;;4994172;28;20068;-76
2022/08/15 12:15:31;;;;;;;19.45;16.48;;;28.40;93.10;;;;;;4993681;28;20180;-75
2022/08/15 12:18:10;;;;;;;22.05;16.75;;;28.50;92.90;;;;;;4991098;28;20034;-75
2022/08/15 12:20:45;;;;;;;21.15;16.73;;;28.40;92.50;;;;;;4994572;28;20073;-76
2022/08/15 12:23:28;;;;;;;19.45;16.27;;;28.40;91.90;;;;;;5026220;28;20069;-75
2022/08/15 12:26:00;;;;;;;18.88;16.30;;;28.30;92.10;;;;;;4997444;28;20053;-75
2022/08/15 12:28:27;;;;;;;23.43;17.43;;;28.20;92.30;;;;;;4993576;28;20096;-76
2022/08/15 12:30:56;;;;;;;27.55;18.70;;;28.10;92.10;;;;;;4993493;28;20355;-77
2022/08/15 12:33:23;;;;;;;22.90;18.40;;;27.90;92.40;;;;;;4994900;28;20057;-75
2022/08/15 12:35:51;;;;;;;20.90;17.98;;;27.70;92.60;;;;;;4945780;28;20399;-75
2022/08/15 12:38:19;;;;;;;20.33;17.23;;;27.60;93.00;;;;;;4962566;28;20100;-76
2022/08/15 12:40:45;;;;;;;21.05;17.80;;;27.60;93.50;;;;;;5009212;28;20122;-75
2022/08/15 12:43:11;;;;;;;21.73;18.92;;;27.60;93.80;;;;;;4977063;28;20046;-75
2022/08/15 12:45:38;;;;;;;24.52;20.15;;;27.50;93.60;;;;;;4977364;28;20096;-76
2022/08/15 12:48:12;;;;;;;23.58;19.90;;;27.40;93.60;;;;;;4977024;28;20041;-75
2022/08/15 12:50:37;;;;;;;22.77;17.95;;;27.40;93.80;;;;;;4993125;28;20041;-75
2022/08/15 12:53:04;;;;;;;22.58;18.15;;;27.40;94.20;;;;;;4993384;28;20526;-77
2022/08/15 12:55:30;;;;;;;26.25;18.63;;;27.40;94.10;;;;;;4961669;28;20129;-78
2022/08/15 12:57:56;;;;;;;23.15;19.85;;;27.50;93.90;;;;;;4994488;28;20125;-76
2022/08/15 13:00:22;;;;;;;24.80;18.58;;;27.50;94.00;;;;;;4977391;28;20125;-77
2022/08/15 13:02:49;;;;;;;19.65;16.20;;;27.50;94.30;;;;;;4977893;28;20046;-77
2022/08/15 13:05:30;;;;;;;26.92;19.42;;;27.50;94.50;;;;;;4978649;28;20033;-78
2022/08/15 13:07:56;;;;;;;25.88;18.00;;;27.50;94.30;;;;;;4992461;28;20038;-77
2022/08/15 13:10:22;;;;;;;17.35;14.93;;;27.40;94.50;;;;;;4977355;28;20084;-76